sensor_id;sensor_type;location;lat;lon;timestamp;pressure;altitude;pressure_sealevel;temperature;humidity
16694;BME280;39538;52.196;9.892;2022-09-25T00:00:58;100265.72;;;12.95;100.00
16694;BME280;39538;52.196;9.892;2022-09-25T00:03:27;100265.91;;;13.03;100.00
16694;BME280;39538;52.196;9.892;2022-09-25T00:06:00;100271.13;;;13.04;100.00
16694;BME280;39538;52.196;9.892;2022-09-25T00:08:27;100264.69;;;13.07;100.00
16694;BME280;39538;52.196;9.892;2022-09-25T00:10:54;100267.34;;;13.07;100.00
16694;BME280;39538;52.196;9.892;2022-09-25T00:13:21;100265.53;;;13.07;100.00
16694;BME280;39538;52.196;9.892;2022-09-25T00:15:49;100259.56;;;12.94;100.00
16694;BME280;39538;52.196;9.892;2022-09-25T00:18:18;100259.75;;;12.81;100.00
16694;BME280;39538;52.196;9.892;2022-09-25T00:21:08;100254.63;;;12.69;100.00
16694;BME280;39538;52.196;9.892;2022-09-25T00:23:35;100263.19;;;12.72;100.00
16694;BME280;39538;52.196;9.892;2022-09-25T00:26:03;100255.56;;;12.68;100.00
16694;BME280;39538;52.196;9.892;2022-09-25T00:28:31;100254.72;;;12.67;100.00
16694;BME280;39538;52.196;9.892;2022-09-25T00:30:58;100250.97;;;12.70;100.00
16694;BME280;39538;52.196;9.892;2022-09-25T00:33:25;100243.69;;;12.72;100.00
16694;BME280;39538;52.196;9.892;2022-09-25T00:35:52;100248.84;;;12.63;100.00
16694;BME280;39538;52.196;9.892;2022-09-25T00:38:19;100251.72;;;12.60;100.00
16694;BME280;39538;52.196;9.892;2022-09-25T00:40:45;100251.41;;;12.54;100.00
16694;BME280;39538;52.196;9.892;2022-09-25T00:43:13;100254.41;;;12.60;100.00
16694;BME280;39538;52.196;9.892;2022-09-25T00:45:40;100251.50;;;12.63;100.00
16694;BME280;39538;52.196;9.892;2022-09-25T00:48:10;100252.06;;;12.67;100.00
16694;BME280;39538;52.196;9.892;2022-09-25T00:50:47;100252.06;;;12.67;100.00
16694;BME280;39538;52.196;9.892;2022-09-25T00:53:18;100251.22;;;12.67;100.00
16694;BME280;39538;52.196;9.892;2022-09-25T00:55:47;100253.78;;;12.68;100.00
16694;BME280;39538;52.196;9.892;2022-09-25T00:58:16;100251.56;;;12.73;100.00
16694;BME280;39538;52.196;9.892;2022-09-25T01:00:44;100248.50;;;12.78;100.00
16694;BME280;39538;52.196;9.892;2022-09-25T01:03:12;100247.25;;;12.82;100.00
16694;BME280;39538;52.196;9.892;2022-09-25T01:05:42;100253.06;;;12.87;100.00
16694;BME280;39538;52.196;9.892;2022-09-25T01:08:12;100254.75;;;12.88;100.00
16694;BME280;39538;52.196;9.892;2022-09-25T01:10:40;100254.75;;;12.88;100.00
16694;BME280;39538;52.196;9.892;2022-09-25T01:13:06;100251.97;;;12.90;100.00
16694;BME280;39538;52.196;9.892;2022-09-25T01:15:37;100250.97;;;12.91;100.00
16694;BME280;39538;52.196;9.892;2022-09-25T01:18:15;100250.59;;;12.95;100.00
16694;BME280;39538;52.196;9.892;2022-09-25T01:21:05;100255.91;;;12.95;100.00
16694;BME280;39538;52.196;9.892;2022-09-25T01:23:55;100256.44;;;12.89;100.00
16694;BME280;39538;52.196;9.892;2022-09-25T01:26:39;100258.84;;;12.92;100.00
16694;BME280;39538;52.196;9.892;2022-09-25T01:29:14;100256.91;;;12.94;100.00
16694;BME280;39538;52.196;9.892;2022-09-25T01:31:49;100253.06;;;12.87;100.00
16694;BME280;39538;52.196;9.892;2022-09-25T01:34:22;100248.69;;;12.86;100.00
16694;BME280;39538;52.196;9.892;2022-09-25T01:36:54;100259.22;;;12.88;100.00
16694;BME280;39538;52.196;9.892;2022-09-25T01:39:27;100254.63;;;12.90;100.00
16694;BME280;39538;52.196;9.892;2022-09-25T01:41:59;100258.41;;;12.87;100.00
16694;BME280;39538;52.196;9.892;2022-09-25T01:44:32;100261.50;;;12.92;100.00
16694;BME280;39538;52.196;9.892;2022-09-25T01:47:05;100264.91;;;12.94;100.00
16694;BME280;39538;52.196;9.892;2022-09-25T01:49:36;100265.84;;;12.93;100.00
16694;BME280;39538;52.196;9.892;2022-09-25T01:52:06;100259.56;;;12.94;100.00
16694;BME280;39538;52.196;9.892;2022-09-25T01:54:39;100261.25;;;12.95;100.00
16694;BME280;39538;52.196;9.892;2022-09-25T01:57:09;100253.41;;;12.94;100.00
16694;BME280;39538;52.196;9.892;2022-09-25T01:59:42;100256.19;;;12.92;100.00
16694;BME280;39538;52.196;9.892;2022-09-25T02:02:13;100260.41;;;12.95;100.00
16694;BME280;39538;52.196;9.892;2022-09-25T02:04:46;100257.28;;;12.90;100.00
16694;BME280;39538;52.196;9.892;2022-09-25T02:07:17;100251.13;;;12.89;100.00
16694;BME280;39538;52.196;9.892;2022-09-25T02:09:48;100254.03;;;12.86;100.00
16694;BME280;39538;52.196;9.892;2022-09-25T02:12:19;100253.91;;;12.88;100.00
16694;BME280;39538;52.196;9.892;2022-09-25T02:14:52;100246.31;;;12.83;100.00
16694;BME280;39538;52.196;9.892;2022-09-25T02:17:21;100255.00;;;12.85;100.00
16694;BME280;39538;52.196;9.892;2022-09-25T02:20:04;100252.19;;;12.86;100.00
16694;BME280;39538;52.196;9.892;2022-09-25T02:22:50;100251.63;;;12.83;100.00
16694;BME280;39538;52.196;9.892;2022-09-25T02:25:23;100249.69;;;12.85;100.00
16694;BME280;39538;52.196;9.892;2022-09-25T02:27:51;100250.06;;;12.80;100.00
16694;BME280;39538;52.196;9.892;2022-09-25T02:30:19;100249.91;;;12.82;100.00
16694;BME280;39538;52.196;9.892;2022-09-25T02:32:45;100253.56;;;12.81;100.00
16694;BME280;39538;52.196;9.892;2022-09-25T02:35:12;100249.25;;;12.80;100.00
16694;BME280;39538;52.196;9.892;2022-09-25T02:37:38;100256.50;;;12.78;100.00
16694;BME280;39538;52.196;9.892;2022-09-25T02:40:05;100257.22;;;12.80;100.00
16694;BME280;39538;52.196;9.892;2022-09-25T02:42:37;100259.91;;;12.80;100.00
16694;BME280;39538;52.196;9.892;2022-09-25T02:45:14;100261.69;;;12.79;100.00
16694;BME280;39538;52.196;9.892;2022-09-25T02:47:54;100258.06;;;12.80;100.00
16694;BME280;39538;52.196;9.892;2022-09-25T02:50:25;100256.13;;;12.82;100.00
16694;BME280;39538;52.196;9.892;2022-09-25T02:52:59;100262.28;;;12.83;100.00
16694;BME280;39538;52.196;9.892;2022-09-25T02:55:33;100260.34;;;12.85;100.00
16694;BME280;39538;52.196;9.892;2022-09-25T02:58:06;100262.28;;;12.83;100.00
16694;BME280;39538;52.196;9.892;2022-09-25T03:00:36;100253.69;;;12.79;100.00
16694;BME280;39538;52.196;9.892;2022-09-25T03:03:07;100258.84;;;12.71;100.00
16694;BME280;39538;52.196;9.892;2022-09-25T03:05:35;100250.00;;;12.71;100.00
16694;BME280;39538;52.196;9.892;2022-09-25T03:08:02;100255.34;;;12.71;100.00
16694;BME280;39538;52.196;9.892;2022-09-25T03:10:47;100252.66;;;12.71;100.00
16694;BME280;39538;52.196;9.892;2022-09-25T03:13:16;100255.72;;;12.66;100.00
16694;BME280;39538;52.196;9.892;2022-09-25T03:15:45;100260.19;;;12.65;100.00
16694;BME280;39538;52.196;9.892;2022-09-25T03:18:13;100257.78;;;12.62;100.00
16694;BME280;39538;52.196;9.892;2022-09-25T03:20:41;100258.63;;;12.63;100.00
16694;BME280;39538;52.196;9.892;2022-09-25T03:23:07;100248.84;;;12.63;100.00
16694;BME280;39538;52.196;9.892;2022-09-25T03:25:34;100250.50;;;12.64;100.00
16694;BME280;39538;52.196;9.892;2022-09-25T03:28:00;100251.50;;;12.63;100.00
16694;BME280;39538;52.196;9.892;2022-09-25T03:30:27;100258.63;;;12.63;100.00
16694;BME280;39538;52.196;9.892;2022-09-25T03:32:54;100253.16;;;12.64;100.00
16694;BME280;39538;52.196;9.892;2022-09-25T03:35:22;100253.91;;;12.67;100.00
16694;BME280;39538;52.196;9.892;2022-09-25T03:37:48;100253.16;;;12.64;100.00
16694;BME280;39538;52.196;9.892;2022-09-25T03:40:15;100251.88;;;12.59;100.00
16694;BME280;39538;52.196;9.892;2022-09-25T03:42:41;100250.63;;;12.63;100.00
16694;BME280;39538;52.196;9.892;2022-09-25T03:45:08;100251.50;;;12.63;100.00
16694;BME280;39538;52.196;9.892;2022-09-25T03:47:35;100249.66;;;12.64;100.00
16694;BME280;39538;52.196;9.892;2022-09-25T03:50:02;100249.53;;;12.65;100.00
16694;BME280;39538;52.196;9.892;2022-09-25T03:52:30;100252.19;;;12.65;100.00
16694;BME280;39538;52.196;9.892;2022-09-25T03:54:57;100252.19;;;12.65;100.00
16694;BME280;39538;52.196;9.892;2022-09-25T03:57:23;100255.13;;;12.62;100.00
16694;BME280;39538;52.196;9.892;2022-09-25T03:59:50;100248.13;;;12.61;100.00
16694;BME280;39538;52.196;9.892;2022-09-25T04:02:17;100245.69;;;12.58;100.00
16694;BME280;39538;52.196;9.892;2022-09-25T04:04:44;100243.75;;;12.60;100.00
16694;BME280;39538;52.196;9.892;2022-09-25T04:07:11;100244.59;;;12.61;100.00
16694;BME280;39538;52.196;9.892;2022-09-25T04:09:38;100250.56;;;12.53;100.00
16694;BME280;39538;52.196;9.892;2022-09-25T04:12:05;100246.69;;;12.57;100.00
16694;BME280;39538;52.196;9.892;2022-09-25T04:14:33;100243.28;;;12.55;100.00
16694;BME280;39538;52.196;9.892;2022-09-25T04:16:59;100236.03;;;12.57;100.00
16694;BME280;39538;52.196;9.892;2022-09-25T04:19:26;100237.69;;;12.58;100.00
16694;BME280;39538;52.196;9.892;2022-09-25T04:21:52;100237.56;;;12.60;100.00
16694;BME280;39538;52.196;9.892;2022-09-25T04:24:19;100235.75;;;12.60;100.00
16694;BME280;39538;52.196;9.892;2022-09-25T04:27:04;100232.38;;;12.58;100.00
16694;BME280;39538;52.196;9.892;2022-09-25T04:29:30;100227.31;;;12.55;100.00
16694;BME280;39538;52.196;9.892;2022-09-25T04:31:57;100233.34;;;12.57;100.00
16694;BME280;39538;52.196;9.892;2022-09-25T04:34:41;100233.47;;;12.56;100.00
16694;BME280;39538;52.196;9.892;2022-09-25T04:37:07;100237.97;;;12.55;100.00
16694;BME280;39538;52.196;9.892;2022-09-25T04:39:34;100230.97;;;12.54;100.00
16694;BME280;39538;52.196;9.892;2022-09-25T04:42:02;100234.19;;;12.58;100.00
16694;BME280;39538;52.196;9.892;2022-09-25T04:44:30;100232.53;;;12.57;100.00
16694;BME280;39538;52.196;9.892;2022-09-25T04:46:56;100237.69;;;12.58;100.00
16694;BME280;39538;52.196;9.892;2022-09-25T04:49:23;100244.97;;;12.56;100.00
16694;BME280;39538;52.196;9.892;2022-09-25T04:51:49;100240.50;;;12.57;100.00
16694;BME280;39538;52.196;9.892;2022-09-25T04:54:16;100241.34;;;12.57;100.00
16694;BME280;39538;52.196;9.892;2022-09-25T04:56:43;100241.09;;;12.60;100.00
16694;BME280;39538;52.196;9.892;2022-09-25T04:59:09;100236.47;;;12.62;100.00
16694;BME280;39538;52.196;9.892;2022-09-25T05:01:37;100243.63;;;12.62;100.00
16694;BME280;39538;52.196;9.892;2022-09-25T05:04:04;100235.63;;;12.62;100.00
16694;BME280;39538;52.196;9.892;2022-09-25T05:06:31;100234.06;;;12.59;100.00
16694;BME280;39538;52.196;9.892;2022-09-25T05:08:57;100242.78;;;12.61;100.00
16694;BME280;39538;52.196;9.892;2022-09-25T05:11:27;100235.75;;;12.60;100.00
16694;BME280;39538;52.196;9.892;2022-09-25T05:13:54;100245.31;;;12.63;100.00
16694;BME280;39538;52.196;9.892;2022-09-25T05:16:20;100239.97;;;12.63;100.00
16694;BME280;39538;52.196;9.892;2022-09-25T05:18:48;100237.19;;;12.64;100.00
16694;BME280;39538;52.196;9.892;2022-09-25T05:21:15;100245.91;;;12.67;100.00
16694;BME280;39538;52.196;9.892;2022-09-25T05:23:42;100247.00;;;12.64;100.00
16694;BME280;39538;52.196;9.892;2022-09-25T05:26:08;100244.34;;;12.64;100.00
16694;BME280;39538;52.196;9.892;2022-09-25T05:28:35;100248.84;;;12.63;100.00
16694;BME280;39538;52.196;9.892;2022-09-25T05:31:03;100244.34;;;12.64;100.00
16694;BME280;39538;52.196;9.892;2022-09-25T05:33:29;100238.88;;;12.65;100.00
16694;BME280;39538;52.196;9.892;2022-09-25T05:36:00;100244.19;;;12.65;100.00
16694;BME280;39538;52.196;9.892;2022-09-25T05:38:27;100248.69;;;12.65;100.00
16694;BME280;39538;52.196;9.892;2022-09-25T05:40:54;100246.03;;;12.65;100.00
16694;BME280;39538;52.196;9.892;2022-09-25T05:43:21;100253.91;;;12.67;100.00
16694;BME280;39538;52.196;9.892;2022-09-25T05:45:52;100246.03;;;12.65;100.00
16694;BME280;39538;52.196;9.892;2022-09-25T05:48:19;100254.00;;;12.65;100.00
16694;BME280;39538;52.196;9.892;2022-09-25T05:50:50;100246.75;;;12.67;100.00
16694;BME280;39538;52.196;9.892;2022-09-25T05:53:20;100247.59;;;12.68;100.00
16694;BME280;39538;52.196;9.892;2022-09-25T05:55:50;100253.16;;;12.64;100.00
16694;BME280;39538;52.196;9.892;2022-09-25T05:58:16;100246.84;;;12.65;100.00
16694;BME280;39538;52.196;9.892;2022-09-25T06:00:43;100247.00;;;12.64;99.92
16694;BME280;39538;52.196;9.892;2022-09-25T06:03:10;100247.84;;;12.64;99.95
16694;BME280;39538;52.196;9.892;2022-09-25T06:05:36;100250.25;;;12.68;99.76
16694;BME280;39538;52.196;9.892;2022-09-25T06:08:04;100249.28;;;12.69;99.55
16694;BME280;39538;52.196;9.892;2022-09-25T06:10:33;100244.34;;;12.64;99.64
16694;BME280;39538;52.196;9.892;2022-09-25T06:13:01;100242.25;;;12.68;99.69
16694;BME280;39538;52.196;9.892;2022-09-25T06:15:32;100242.97;;;12.70;99.15
16694;BME280;39538;52.196;9.892;2022-09-25T06:18:00;100242.97;;;12.70;98.99
16694;BME280;39538;52.196;9.892;2022-09-25T06:20:27;100244.53;;;12.72;98.46
16694;BME280;39538;52.196;9.892;2022-09-25T06:22:54;100239.34;;;12.71;98.39
16694;BME280;39538;52.196;9.892;2022-09-25T06:25:22;100240.47;;;12.68;98.29
16694;BME280;39538;52.196;9.892;2022-09-25T06:27:52;100239.13;;;12.62;98.75
16694;BME280;39538;52.196;9.892;2022-09-25T06:30:23;100250.91;;;12.60;99.04
16694;BME280;39538;52.196;9.892;2022-09-25T06:32:55;100245.31;;;12.63;98.88
16694;BME280;39538;52.196;9.892;2022-09-25T06:35:22;100239.75;;;12.66;98.54
16694;BME280;39538;52.196;9.892;2022-09-25T06:37:50;100236.94;;;12.68;98.56
16694;BME280;39538;52.196;9.892;2022-09-25T06:40:16;100234.97;;;12.70;97.81
16694;BME280;39538;52.196;9.892;2022-09-25T06:42:43;100235.97;;;12.69;98.12
16694;BME280;39538;52.196;9.892;2022-09-25T06:45:11;100235.69;;;12.72;98.15
16694;BME280;39538;52.196;9.892;2022-09-25T06:47:38;100233.75;;;12.74;98.12
16694;BME280;39538;52.196;9.892;2022-09-25T06:50:05;100237.00;;;12.77;97.89
16694;BME280;39538;52.196;9.892;2022-09-25T06:52:32;100239.53;;;12.79;97.52
16694;BME280;39538;52.196;9.892;2022-09-25T06:54:58;100236.75;;;12.80;97.42
16694;BME280;39538;52.196;9.892;2022-09-25T06:57:26;100240.38;;;12.79;97.21
16694;BME280;39538;52.196;9.892;2022-09-25T06:59:53;100248.25;;;12.81;97.15
16694;BME280;39538;52.196;9.892;2022-09-25T07:02:21;100244.47;;;12.83;96.70
16694;BME280;39538;52.196;9.892;2022-09-25T07:05:05;100239.75;;;12.87;96.79
16694;BME280;39538;52.196;9.892;2022-09-25T07:07:32;100250.41;;;12.87;96.81
16694;BME280;39538;52.196;9.892;2022-09-25T07:09:58;100244.69;;;12.92;96.66
16694;BME280;39538;52.196;9.892;2022-09-25T07:12:25;100250.59;;;12.95;96.34
16694;BME280;39538;52.196;9.892;2022-09-25T07:14:51;100249.25;;;13.01;96.44
16694;BME280;39538;52.196;9.892;2022-09-25T07:17:18;100245.69;;;13.00;96.23
16694;BME280;39538;52.196;9.892;2022-09-25T07:19:46;100243.38;;;13.07;96.33
16694;BME280;39538;52.196;9.892;2022-09-25T07:22:12;100248.19;;;13.13;96.11
16694;BME280;39538;52.196;9.892;2022-09-25T07:24:39;100246.22;;;13.15;96.23
16694;BME280;39538;52.196;9.892;2022-09-25T07:27:05;100245.97;;;13.18;95.72
16694;BME280;39538;52.196;9.892;2022-09-25T07:29:32;100253.84;;;13.20;95.25
16694;BME280;39538;52.196;9.892;2022-09-25T07:32:00;100251.63;;;13.25;95.18
16694;BME280;39538;52.196;9.892;2022-09-25T07:34:26;100259.97;;;13.32;95.09
16694;BME280;39538;52.196;9.892;2022-09-25T07:36:54;100256.06;;;13.36;94.21
16694;BME280;39538;52.196;9.892;2022-09-25T07:39:21;100257.72;;;13.37;93.89
16694;BME280;39538;52.196;9.892;2022-09-25T07:41:47;100264.34;;;13.42;93.94
16694;BME280;39538;52.196;9.892;2022-09-25T07:44:14;100269.28;;;13.47;93.29
16694;BME280;39538;52.196;9.892;2022-09-25T07:46:41;100272.53;;;13.51;93.01
16694;BME280;39538;52.196;9.892;2022-09-25T07:49:08;100268.16;;;13.49;92.46
16694;BME280;39538;52.196;9.892;2022-09-25T07:51:34;100257.38;;;13.51;91.83
16694;BME280;39538;52.196;9.892;2022-09-25T07:54:02;100265.06;;;13.44;91.58
16694;BME280;39538;52.196;9.892;2022-09-25T07:56:29;100259.88;;;13.43;91.36
16694;BME280;39538;52.196;9.892;2022-09-25T07:58:58;100268.44;;;13.46;91.60
16694;BME280;39538;52.196;9.892;2022-09-25T08:01:25;100263.25;;;13.45;91.44
16694;BME280;39538;52.196;9.892;2022-09-25T08:03:51;100267.28;;;13.39;91.86
16694;BME280;39538;52.196;9.892;2022-09-25T08:06:18;100266.56;;;13.37;91.93
16694;BME280;39538;52.196;9.892;2022-09-25T08:08:44;100269.94;;;13.39;91.93
16694;BME280;39538;52.196;9.892;2022-09-25T08:11:14;100269.94;;;13.39;91.28
16694;BME280;39538;52.196;9.892;2022-09-25T08:13:41;100273.63;;;13.38;91.06
16694;BME280;39538;52.196;9.892;2022-09-25T08:16:10;100277.22;;;13.37;91.39
16694;BME280;39538;52.196;9.892;2022-09-25T08:18:38;100276.72;;;13.43;91.50
16694;BME280;39538;52.196;9.892;2022-09-25T08:21:06;100276.44;;;13.46;90.90
16694;BME280;39538;52.196;9.892;2022-09-25T08:23:33;100281.50;;;13.49;90.84
16694;BME280;39538;52.196;9.892;2022-09-25T08:26:00;100279.53;;;13.52;90.48
16694;BME280;39538;52.196;9.892;2022-09-25T08:28:28;100284.16;;;13.49;90.28
16694;BME280;39538;52.196;9.892;2022-09-25T08:30:56;100279.44;;;13.53;90.33
16694;BME280;39538;52.196;9.892;2022-09-25T08:33:23;100289.09;;;13.54;89.82
16694;BME280;39538;52.196;9.892;2022-09-25T08:35:53;100287.31;;;13.55;89.72
16694;BME280;39538;52.196;9.892;2022-09-25T08:38:20;100281.25;;;13.53;89.33
16694;BME280;39538;52.196;9.892;2022-09-25T08:40:51;100286.72;;;13.51;89.40
16694;BME280;39538;52.196;9.892;2022-09-25T08:43:21;100288.41;;;13.52;88.77
16694;BME280;39538;52.196;9.892;2022-09-25T08:45:50;100291.72;;;13.44;88.90
16694;BME280;39538;52.196;9.892;2022-09-25T08:48:44;100284.72;;;13.43;88.33
16694;BME280;39538;52.196;9.892;2022-09-25T08:51:31;100284.84;;;13.42;88.16
16694;BME280;39538;52.196;9.892;2022-09-25T08:53:59;100292.84;;;13.42;88.22
16694;BME280;39538;52.196;9.892;2022-09-25T08:56:27;100291.72;;;13.44;88.50
16694;BME280;39538;52.196;9.892;2022-09-25T08:59:00;100287.38;;;13.43;88.34
16694;BME280;39538;52.196;9.892;2022-09-25T09:01:46;100287.38;;;13.43;88.09
16694;BME280;39538;52.196;9.892;2022-09-25T09:04:20;100280.09;;;13.45;87.89
16694;BME280;39538;52.196;9.892;2022-09-25T09:06:53;100292.72;;;13.43;87.35
16694;BME280;39538;52.196;9.892;2022-09-25T09:09:26;100298.31;;;13.40;87.20
16694;BME280;39538;52.196;9.892;2022-09-25T09:11:58;100296.88;;;13.36;87.50
16694;BME280;39538;52.196;9.892;2022-09-25T09:14:29;100285.63;;;13.33;87.87
16694;BME280;39538;52.196;9.892;2022-09-25T09:17:04;100287.06;;;13.37;87.79
16694;BME280;39538;52.196;9.892;2022-09-25T09:19:30;100283.16;;;13.41;87.37
16694;BME280;39538;52.196;9.892;2022-09-25T09:22:03;100290.06;;;13.43;87.36
16694;BME280;39538;52.196;9.892;2022-09-25T09:24:44;100297.50;;;13.49;87.37
16694;BME280;39538;52.196;9.892;2022-09-25T09:27:28;100287.53;;;13.52;87.43
16694;BME280;39538;52.196;9.892;2022-09-25T09:30:06;100285.19;;;13.58;87.22
16694;BME280;39538;52.196;9.892;2022-09-25T09:32:50;100283.69;;;13.65;86.28
16694;BME280;39538;52.196;9.892;2022-09-25T09:35:26;100288.94;;;13.77;86.05
16694;BME280;39538;52.196;9.892;2022-09-25T09:38:01;100293.19;;;13.89;85.70
16694;BME280;39538;52.196;9.892;2022-09-25T09:40:42;100281.69;;;13.98;86.09
16694;BME280;39538;52.196;9.892;2022-09-25T09:43:20;100291.13;;;14.12;85.41
16694;BME280;39538;52.196;9.892;2022-09-25T09:45:51;100288.06;;;14.17;84.54
16694;BME280;39538;52.196;9.892;2022-09-25T09:48:24;100287.34;;;14.15;84.69
16694;BME280;39538;52.196;9.892;2022-09-25T09:50:58;100278.09;;;14.19;84.49
16694;BME280;39538;52.196;9.892;2022-09-25T09:53:32;100278.69;;;14.22;84.96
16694;BME280;39538;52.196;9.892;2022-09-25T09:56:02;100285.56;;;14.25;84.57
16694;BME280;39538;52.196;9.892;2022-09-25T09:58:38;100282.88;;;14.25;84.57
16694;BME280;39538;52.196;9.892;2022-09-25T10:01:08;100280.78;;;14.28;84.62
16694;BME280;39538;52.196;9.892;2022-09-25T10:03:37;100286.56;;;14.33;84.46
16694;BME280;39538;52.196;9.892;2022-09-25T10:06:08;100279.81;;;14.39;84.01
16694;BME280;39538;52.196;9.892;2022-09-25T10:08:36;100275.19;;;14.31;84.48
16694;BME280;39538;52.196;9.892;2022-09-25T10:11:08;100282.72;;;14.26;84.24
16694;BME280;39538;52.196;9.892;2022-09-25T10:13:39;100274.47;;;14.29;84.77
16694;BME280;39538;52.196;9.892;2022-09-25T10:16:10;100269.56;;;14.34;84.91
16694;BME280;39538;52.196;9.892;2022-09-25T10:18:41;100278.97;;;14.39;85.05
16694;BME280;39538;52.196;9.892;2022-09-25T10:21:13;100279.94;;;14.38;84.17
16694;BME280;39538;52.196;9.892;2022-09-25T10:23:47;100275.44;;;14.38;84.72
16694;BME280;39538;52.196;9.892;2022-09-25T10:26:23;100284.88;;;14.42;84.18
16694;BME280;39538;52.196;9.892;2022-09-25T10:28:50;100280.38;;;14.43;84.11
16694;BME280;39538;52.196;9.892;2022-09-25T10:31:18;100288.38;;;14.43;83.81
16694;BME280;39538;52.196;9.892;2022-09-25T10:33:58;100288.38;;;14.43;83.46
16694;BME280;39538;52.196;9.892;2022-09-25T10:36:35;100278.69;;;14.42;83.16
16694;BME280;39538;52.196;9.892;2022-09-25T10:39:05;100281.66;;;14.39;83.03
16694;BME280;39538;52.196;9.892;2022-09-25T10:41:45;100284.44;;;14.37;83.09
16694;BME280;39538;52.196;9.892;2022-09-25T10:44:20;100296.13;;;14.36;83.32
16694;BME280;39538;52.196;9.892;2022-09-25T10:46:48;100287.53;;;14.32;83.63
16694;BME280;39538;52.196;9.892;2022-09-25T10:49:44;100288.94;;;14.37;83.99
16694;BME280;39538;52.196;9.892;2022-09-25T10:52:28;100283.19;;;14.41;83.59
16694;BME280;39538;52.196;9.892;2022-09-25T10:55:12;100281.06;;;14.45;81.92
16694;BME280;39538;52.196;9.892;2022-09-25T10:57:45;100276.72;;;14.44;82.28
16694;BME280;39538;52.196;9.892;2022-09-25T11:00:20;100276.72;;;14.44;82.41
16694;BME280;39538;52.196;9.892;2022-09-25T11:02:49;100279.53;;;14.42;82.21
16694;BME280;39538;52.196;9.892;2022-09-25T11:05:21;100282.34;;;14.41;82.37
16694;BME280;39538;52.196;9.892;2022-09-25T11:07:50;100282.34;;;14.41;81.90
16694;BME280;39538;52.196;9.892;2022-09-25T11:10:20;100279.81;;;14.39;81.63
16694;BME280;39538;52.196;9.892;2022-09-25T11:12:47;100279.69;;;14.41;81.10
16694;BME280;39538;52.196;9.892;2022-09-25T11:15:17;100286.13;;;14.38;80.89
16694;BME280;39538;52.196;9.892;2022-09-25T11:17:48;100276.44;;;14.37;81.71
16694;BME280;39538;52.196;9.892;2022-09-25T11:20:23;100279.53;;;14.42;81.22
16694;BME280;39538;52.196;9.892;2022-09-25T11:23:06;100279.28;;;14.45;81.47
16694;BME280;39538;52.196;9.892;2022-09-25T11:25:43;100271.69;;;14.50;81.37
16694;BME280;39538;52.196;9.892;2022-09-25T11:28:15;100272.50;;;14.51;81.45
16694;BME280;39538;52.196;9.892;2022-09-25T11:30:48;100265.22;;;14.53;82.03
16694;BME280;39538;52.196;9.892;2022-09-25T11:33:23;100264.41;;;14.62;81.33
16694;BME280;39538;52.196;9.892;2022-09-25T11:35:57;100259.47;;;14.67;81.03
16694;BME280;39538;52.196;9.892;2022-09-25T11:38:33;100263.81;;;14.68;81.72
16694;BME280;39538;52.196;9.892;2022-09-25T11:41:28;100264.53;;;14.70;81.58
16694;BME280;39538;52.196;9.892;2022-09-25T11:44:13;100261.59;;;14.73;81.54
16694;BME280;39538;52.196;9.892;2022-09-25T11:46:49;100257.09;;;14.74;81.10
16694;BME280;39538;52.196;9.892;2022-09-25T11:49:20;100248.06;;;14.85;81.08
16694;BME280;39538;52.196;9.892;2022-09-25T11:54:58;100251.81;;;15.11;80.85
16694;BME280;39538;52.196;9.892;2022-09-25T11:57:30;100242.38;;;15.27;79.69
16694;BME280;39538;52.196;9.892;2022-09-25T12:00:07;100249.47;;;15.36;79.23
16694;BME280;39538;52.196;9.892;2022-09-25T12:02:48;100244.66;;;15.49;79.04
16694;BME280;39538;52.196;9.892;2022-09-25T12:05:34;100251.50;;;15.62;78.35
16694;BME280;39538;52.196;9.892;2022-09-25T12:08:15;100242.88;;;15.77;77.43
16694;BME280;39538;52.196;9.892;2022-09-25T12:10:54;100248.16;;;15.87;77.00
16694;BME280;39538;52.196;9.892;2022-09-25T12:13:28;100246.59;;;15.94;76.03
16694;BME280;39538;52.196;9.892;2022-09-25T12:16:11;100241.19;;;16.04;76.58
16694;BME280;39538;52.196;9.892;2022-09-25T12:18:47;100242.06;;;16.22;74.83
16694;BME280;39538;52.196;9.892;2022-09-25T12:21:19;100242.72;;;16.42;74.80
16694;BME280;39538;52.196;9.892;2022-09-25T12:23:54;100234.25;;;16.65;72.58
16694;BME280;39538;52.196;9.892;2022-09-25T12:26:31;100234.28;;;16.73;72.35
16694;BME280;39538;52.196;9.892;2022-09-25T12:29:12;100227.41;;;16.89;71.42
16694;BME280;39538;52.196;9.892;2022-09-25T12:31:50;100225.38;;;17.09;70.19
16694;BME280;39538;52.196;9.892;2022-09-25T12:34:29;100227.78;;;17.46;69.32
16694;BME280;39538;52.196;9.892;2022-09-25T12:37:06;100226.72;;;18.24;66.84
16694;BME280;39538;52.196;9.892;2022-09-25T12:39:42;100225.25;;;18.54;63.85
16694;BME280;39538;52.196;9.892;2022-09-25T12:42:15;100221.72;;;18.70;63.66
16694;BME280;39538;52.196;9.892;2022-09-25T12:44:48;100225.06;;;18.64;62.09
16694;BME280;39538;52.196;9.892;2022-09-25T12:47:23;100216.88;;;18.82;60.64
16694;BME280;39538;52.196;9.892;2022-09-25T12:49:59;100210.59;;;19.14;59.39
16694;BME280;39538;52.196;9.892;2022-09-25T12:52:32;100215.78;;;19.24;57.97
16694;BME280;39538;52.196;9.892;2022-09-25T12:55:04;100206.47;;;19.43;57.60
16694;BME280;39538;52.196;9.892;2022-09-25T12:57:42;100211.81;;;19.59;57.14
16694;BME280;39538;52.196;9.892;2022-09-25T13:00:17;100206.00;;;19.78;55.79
16694;BME280;39538;52.196;9.892;2022-09-25T13:02:49;100204.97;;;19.88;55.26
16694;BME280;39538;52.196;9.892;2022-09-25T13:05:22;100191.78;;;19.93;55.66
16694;BME280;39538;52.196;9.892;2022-09-25T13:07:54;100192.44;;;19.95;56.06